Time;durP1;ratioP1;P1;durP2;ratioP2;P2;SDS_P1;SDS_P2;PMS_P1;PMS_P2;Temp;Humidity;BMP_temperature;BMP_pressure;BME280_temperature;BME280_humidity;BME280_pressure;Samples;Min_cycle;Max_cycle;Signal;HPM_P1;HPM_P2
2022/10/22 01:03:29;;;;;;;;;;;;;;;10.10;100.00;99932.06;4668072;23;19925;-81
2022/10/22 01:05:56;;;;;;;;;;;;;;;9.95;100.00;99925.31;4967243;28;19922;-81
2022/10/22 01:08:41;;;;;;;;;;;;;;;9.83;100.00;99914.94;4957588;28;20388;-81
2022/10/22 01:11:10;;;;;;;;;;;;;;;9.84;100.00;99920.06;4963471;28;19918;-81
2022/10/22 01:13:38;;;;;;;;;;;;;;;9.86;100.00;99922.41;4991967;28;20332;-81
2022/10/22 01:16:03;;;;;;;;;;;;;;;9.91;100.00;99921.84;4959971;28;19922;-81
2022/10/22 01:18:33;;;;;;;;;;;;;;;9.91;100.00;99912.78;4990633;28;19918;-81
2022/10/22 01:21:02;;;;;;;;;;;;;;;9.98;100.00;99910.63;4997634;28;20444;-82
2022/10/22 01:23:31;;;;;;;;;;;;;;;10.01;100.00;99906.19;4974805;28;19953;-82
2022/10/22 01:25:57;;;;;;;;;;;;;;;10.01;100.00;99898.66;4985884;28;20288;-82
2022/10/22 01:28:43;;;;;;;;;;;;;;;10.00;100.00;99899.06;4980635;28;19918;-83
2022/10/22 01:31:08;;;;;;;;;;;;;;;10.00;100.00;99905.41;4978447;28;19961;-82
2022/10/22 01:33:34;;;;;;;;;;;;;;;9.97;100.00;99900.75;4973969;28;19977;-82
2022/10/22 01:35:59;;;;;;;;;;;;;;;9.99;100.00;99901.06;4983636;28;20351;-82
2022/10/22 01:38:24;;;;;;;;;;;;;;;10.03;100.00;99898.97;4993581;28;20426;-82
2022/10/22 01:40:50;;;;;;;;;;;;;;;10.06;100.00;99897.34;4990098;28;20002;-82
2022/10/22 01:43:15;;;;;;;;;;;;;;;10.07;100.00;99902.44;4991488;28;19922;-82
2022/10/22 01:45:40;;;;;;;;;;;;;;;10.09;100.00;99902.78;4981133;28;20037;-82
2022/10/22 01:48:25;;;;;;;;;;;;;;;10.03;100.00;99898.97;4973261;28;19928;-82
2022/10/22 01:50:54;;;;;;;;;;;;;;;10.02;100.00;99886.38;4955081;28;19918;-82
2022/10/22 01:53:21;;;;;;;;;;;;;;;10.05;100.00;99884.69;4972349;28;19918;-82
2022/10/22 01:55:51;;;;;;;;;;;;;;;10.04;100.00;99883.91;4969921;28;19960;-82
2022/10/22 01:58:25;;;;;;;;;;;;;;;10.04;100.00;99864.53;4967709;28;19922;-82
2022/10/22 02:00:56;;;;;;;;;;;;;;;10.04;100.00;99875.59;4991524;28;19921;-82
2022/10/22 02:03:24;;;;;;;;;;;;;;;10.01;100.00;99872.94;4973577;28;19918;-82
2022/10/22 02:05:53;;;;;;;;;;;;;;;9.98;100.00;99874.59;4938782;28;19918;-82
2022/10/22 02:08:45;;;;;;;;;;;;;;;10.00;100.00;99869.38;4941292;29;20325;-82
2022/10/22 02:11:11;;;;;;;;;;;;;;;9.95;100.00;99861.59;4955285;28;19922;-82
2022/10/22 02:13:39;;;;;;;;;;;;;;;9.98;100.00;99860.75;4939488;29;19933;-82
2022/10/22 02:16:05;;;;;;;;;;;;;;;9.87;100.00;99863.00;4952005;28;19918;-82
2022/10/22 02:18:31;;;;;;;;;;;;;;;9.91;100.00;99858.13;4958306;28;19918;-82
2022/10/22 02:20:56;;;;;;;;;;;;;;;9.93;100.00;99863.25;4954741;28;19922;-82
2022/10/22 02:23:22;;;;;;;;;;;;;;;9.90;100.00;99855.81;4923522;28;20010;-82
2022/10/22 02:25:48;;;;;;;;;;;;;;;9.79;100.00;99856.09;4944310;28;19918;-82
2022/10/22 02:28:14;;;;;;;;;;;;;;;9.77;100.00;99853.00;4958260;28;19914;-82
2022/10/22 02:30:40;;;;;;;;;;;;;;;9.82;100.00;99852.47;4975686;28;20432;-82
2022/10/22 02:33:16;;;;;;;;;;;;;;;9.84;100.00;99866.66;4953745;29;20001;-82
2022/10/22 02:35:41;;;;;;;;;;;;;;;9.87;100.00;99873.31;4943749;28;20025;-82
2022/10/22 02:38:07;;;;;;;;;;;;;;;9.84;100.00;99864.66;4974899;28;20441;-82
2022/10/22 02:40:32;;;;;;;;;;;;;;;9.88;100.00;99870.09;4975439;28;19917;-82
2022/10/22 02:42:57;;;;;;;;;;;;;;;9.90;100.00;99867.69;4975118;28;19918;-82
2022/10/22 02:45:23;;;;;;;;;;;;;;;9.92;100.00;99868.00;4973922;28;19918;-82
2022/10/22 02:47:48;;;;;;;;;;;;;;;9.94;100.00;99862.03;4946903;28;19914;-82
2022/10/22 02:50:13;;;;;;;;;;;;;;;9.92;100.00;99864.47;4941928;28;20377;-82
2022/10/22 02:52:39;;;;;;;;;;;;;;;9.94;100.00;99860.06;4962774;28;19973;-82
2022/10/22 02:55:04;;;;;;;;;;;;;;;9.98;100.00;99852.44;4970655;28;19922;-82
2022/10/22 02:57:30;;;;;;;;;;;;;;;10.00;100.00;99854.75;4970633;28;19929;-82
2022/10/22 02:59:55;;;;;;;;;;;;;;;10.01;100.00;99845.22;4971409;28;20293;-82
2022/10/22 03:02:20;;;;;;;;;;;;;;;10.04;100.00;99836.81;4955377;29;19975;-82
2022/10/22 03:04:46;;;;;;;;;;;;;;;10.05;100.00;99835.59;4966976;28;19925;-82
2022/10/22 03:07:11;;;;;;;;;;;;;;;10.13;100.00;99831.41;4974877;28;19926;-82
2022/10/22 03:09:36;;;;;;;;;;;;;;;10.24;100.00;99833.91;4975173;28;20000;-82
2022/10/22 03:12:02;;;;;;;;;;;;;;;10.27;100.00;99824.72;4992838;28;19922;-82
2022/10/22 03:14:27;;;;;;;;;;;;;;;10.27;100.00;99819.94;4994359;28;19918;-82
2022/10/22 03:16:53;;;;;;;;;;;;;;;10.31;100.00;99821.84;4994071;28;19928;-83
2022/10/22 03:19:18;;;;;;;;;;;;;;;10.29;100.00;99825.84;4948182;28;19922;-83
2022/10/22 03:21:43;;;;;;;;;;;;;;;10.28;100.00;99824.28;4948713;28;19965;-82
2022/10/22 03:24:10;;;;;;;;;;;;;;;10.32;100.00;99826.16;4953793;28;20024;-82
2022/10/22 03:26:36;;;;;;;;;;;;;;;10.33;100.00;99833.25;4938347;29;20370;-82
2022/10/22 03:29:01;;;;;;;;;;;;;;;10.33;100.00;99838.81;4938726;29;19977;-82
2022/10/22 03:31:27;;;;;;;;;;;;;;;10.27;100.00;99835.81;4938216;29;19957;-82
2022/10/22 03:33:52;;;;;;;;;;;;;;;10.21;100.00;99835.56;4955995;28;19937;-83
2022/10/22 03:36:17;;;;;;;;;;;;;;;10.23;100.00;99837.91;4964104;28;20005;-83
2022/10/22 03:38:43;;;;;;;;;;;;;;;10.19;100.00;99840.00;4969037;28;19973;-82
2022/10/22 03:41:08;;;;;;;;;;;;;;;10.18;100.00;99838.44;5007524;23;20366;-88
2022/10/22 03:43:34;;;;;;;;;;;;;;;10.22;100.00;99822.50;4974063;28;19926;-87
2022/10/22 03:45:59;;;;;;;;;;;;;;;10.21;100.00;99809.84;4983110;28;19944;-87
2022/10/22 03:48:25;;;;;;;;;;;;;;;10.24;100.00;99809.72;4977520;28;19930;-87
2022/10/22 03:50:50;;;;;;;;;;;;;;;10.25;100.00;99811.28;5011182;28;19918;-86
2022/10/22 03:53:16;;;;;;;;;;;;;;;10.27;100.00;99808.84;4995180;28;20024;-86
2022/10/22 03:55:41;;;;;;;;;;;;;;;10.39;100.00;99815.66;4994444;28;20012;-87
2022/10/22 03:58:06;;;;;;;;;;;;;;;10.42;100.00;99808.44;4990644;28;19991;-76
2022/10/22 04:00:33;;;;;;;;;;;;;;;10.45;100.00;99822.19;5010091;28;19924;-76
2022/10/22 04:02:58;;;;;;;;;;;;;;;10.46;100.00;99817.44;4996693;28;20351;-76
2022/10/22 04:05:23;;;;;;;;;;;;;;;10.49;100.00;99822.09;4997767;28;19969;-76
2022/10/22 04:07:49;;;;;;;;;;;;;;;10.48;100.00;99810.22;4985996;28;20335;-76
2022/10/22 04:10:14;;;;;;;;;;;;;;;10.48;100.00;99806.66;5010395;28;19925;-76
2022/10/22 04:12:40;;;;;;;;;;;;;;;10.48;100.00;99801.13;4990389;28;19983;-76
2022/10/22 04:15:05;;;;;;;;;;;;;;;10.43;100.00;99799.69;4983379;28;20424;-86
2022/10/22 04:17:34;;;;;;;;;;;;;;;10.39;100.00;99798.25;4985668;28;20374;-78
2022/10/22 04:20:00;;;;;;;;;;;;;;;10.46;100.00;99800.78;4992681;28;19914;-78
2022/10/22 04:22:25;;;;;;;;;;;;;;;10.50;100.00;99809.78;4991863;28;19925;-77
2022/10/22 04:24:50;;;;;;;;;;;;;;;10.53;100.00;99804.13;4973244;28;19964;-77
2022/10/22 04:27:16;;;;;;;;;;;;;;;10.50;100.00;99788.38;4991239;28;19924;-77
2022/10/22 04:29:41;;;;;;;;;;;;;;;10.54;100.00;99796.59;5001116;28;19928;-78
2022/10/22 04:32:06;;;;;;;;;;;;;;;10.56;100.00;99808.00;5008656;28;19913;-78
2022/10/22 04:34:32;;;;;;;;;;;;;;;10.63;100.00;99810.59;4983580;28;19917;-77
2022/10/22 04:36:57;;;;;;;;;;;;;;;10.68;100.00;99804.47;5002069;28;20072;-86
2022/10/22 04:39:22;;;;;;;;;;;;;;;10.66;100.00;99795.81;5002898;28;19917;-87
2022/10/22 04:41:48;;;;;;;;;;;;;;;10.63;100.00;99810.59;4990967;28;19917;-87
2022/10/22 04:44:13;;;;;;;;;;;;;;;10.63;100.00;99814.13;4986093;28;19921;-88
2022/10/22 04:46:38;;;;;;;;;;;;;;;10.66;100.00;99813.25;4991141;28;19925;-87
2022/10/22 04:49:04;;;;;;;;;;;;;;;10.70;100.00;99818.69;4990391;28;19917;-88
2022/10/22 04:51:29;;;;;;;;;;;;;;;10.74;100.00;99814.59;4975925;28;19917;-86
2022/10/22 04:53:55;;;;;;;;;;;;;;;10.77;100.00;99818.44;4992289;28;20393;-78
2022/10/22 04:56:21;;;;;;;;;;;;;;;10.81;100.00;99810.78;4998944;28;19925;-88
2022/10/22 04:59:13;;;;;;;;;;;;;;;10.85;100.00;99807.91;4973117;28;19921;-88
2022/10/22 05:01:39;;;;;;;;;;;;;;;10.89;100.00;99791.91;4982803;28;19917;-88
2022/10/22 05:04:05;;;;;;;;;;;;;;;10.88;100.00;99807.78;4992437;28;19929;-88
2022/10/22 05:06:31;;;;;;;;;;;;;;;10.89;100.00;99803.81;4983648;28;19917;-88
2022/10/22 05:08:57;;;;;;;;;;;;;;;10.90;100.00;99805.38;4992136;28;19917;-89
2022/10/22 05:11:24;;;;;;;;;;;;;;;10.90;100.00;99799.03;4980731;28;19918;-89
2022/10/22 05:13:49;;;;;;;;;;;;;;;10.90;100.00;99813.69;4977769;28;19917;-78
2022/10/22 05:16:15;;;;;;;;;;;;;;;10.88;100.00;99802.25;4977595;28;19940;-88
2022/10/22 05:18:41;;;;;;;;;;;;;;;10.87;100.00;99791.59;4993248;28;20374;-88
2022/10/22 05:21:07;;;;;;;;;;;;;;;10.83;100.00;99811.16;4981198;28;20375;-88
2022/10/22 05:23:33;;;;;;;;;;;;;;;10.81;100.00;99808.03;4975286;28;19917;-89
2022/10/22 05:26:05;;;;;;;;;;;;;;;10.87;100.00;99795.16;4974247;28;19921;-86
2022/10/22 05:28:30;;;;;;;;;;;;;;;10.91;100.00;99790.28;4987008;28;19924;-88
2022/10/22 05:30:56;;;;;;;;;;;;;;;10.91;100.00;99790.28;4990380;28;20309;-88
2022/10/22 05:33:22;;;;;;;;;;;;;;;10.96;100.00;99791.72;4974295;28;19964;-88
2022/10/22 05:35:50;;;;;;;;;;;;;;;10.98;100.00;99801.16;4990670;28;20441;-88
2022/10/22 05:38:16;;;;;;;;;;;;;;;11.01;100.00;99791.91;4999219;28;19918;-88
2022/10/22 05:40:41;;;;;;;;;;;;;;;11.05;100.00;99795.34;4989605;28;19932;-88
2022/10/22 05:43:07;;;;;;;;;;;;;;;11.07;100.00;99798.47;4988283;28;19924;-88
2022/10/22 05:45:50;;;;;;;;;;;;;;;11.09;100.00;99807.13;4981449;28;19924;-87
2022/10/22 05:48:16;;;;;;;;;;;;;;;11.12;100.00;99809.00;5009655;28;19917;-88
2022/10/22 05:50:41;;;;;;;;;;;;;;;11.17;100.00;99808.44;4997719;28;19924;-88
2022/10/22 05:53:06;;;;;;;;;;;;;;;11.19;100.00;99808.78;5015083;28;20263;-78
2022/10/22 05:55:39;;;;;;;;;;;;;;;11.20;100.00;99801.97;4997570;28;20281;-78
2022/10/22 05:58:04;;;;;;;;;;;;;;;11.24;100.00;99799.88;4997215;28;19917;-75
2022/10/22 06:00:30;;;;;;;;;;;;;;;11.32;100.00;99797.66;5014010;28;20381;-77
2022/10/22 06:02:55;;;;;;;;;;;;;;;11.41;100.00;99805.28;5014120;28;20547;-77
2022/10/22 06:05:20;;;;;;;;;;;;;;;11.50;100.00;99802.59;5013698;28;20437;-77
2022/10/22 06:07:45;;;;;;;;;;;;;;;11.54;100.00;99798.47;4994917;28;19925;-77
2022/10/22 06:10:15;;;;;;;;;;;;;;;11.61;100.00;99789.09;4985184;28;20012;-88
2022/10/22 06:12:40;;;;;;;;;;;;;;;11.62;100.00;99799.78;5007338;28;19917;-77
2022/10/22 06:15:06;;;;;;;;;;;;;;;11.61;100.00;99803.00;4996720;28;20279;-77
2022/10/22 06:17:31;;;;;;;;;;;;;;;11.64;100.00;99807.69;4993863;28;20004;-77
2022/10/22 06:19:56;;;;;;;;;;;;;;;11.68;100.00;99808.31;5012020;28;19960;-77
2022/10/22 06:22:22;;;;;;;;;;;;;;;11.77;100.00;99813.97;5013051;28;19956;-77
2022/10/22 06:24:47;;;;;;;;;;;;;;;11.79;100.00;99824.66;4996814;28;19920;-77
2022/10/22 06:27:13;;;;;;;;;;;;;;;11.81;100.00;99831.28;4996510;28;19972;-77
2022/10/22 06:29:38;;;;;;;;;;;;;;;11.86;100.00;99818.84;4979344;28;20015;-86
2022/10/22 06:32:03;;;;;;;;;;;;;;;11.91;100.00;99824.59;4995859;28;19921;-86
2022/10/22 06:34:29;;;;;;;;;;;;;;;11.98;100.00;99834.69;4996695;28;20414;-87
2022/10/22 06:36:54;;;;;;;;;;;;;;;12.03;100.00;99845.22;5012815;28;20373;-87
2022/10/22 06:39:19;;;;;;;;;;;;;;;12.14;100.00;99840.84;4977502;28;20053;-88
2022/10/22 06:41:45;;;;;;;;;;;;;;;12.20;100.00;99843.81;4965311;28;19917;-88
2022/10/22 06:44:15;;;;;;;;;;;;;;;12.27;100.00;99848.34;4992608;28;19921;-88
2022/10/22 06:46:41;;;;;;;;;;;;;;;12.42;100.00;99843.78;5005345;28;19925;-88
2022/10/22 06:49:08;;;;;;;;;;;;;;;12.60;100.00;99849.47;4993027;28;19918;-78
2022/10/22 06:51:34;;;;;;;;;;;;;;;12.91;100.00;99853.03;4993381;28;19924;-88
2022/10/22 06:53:59;;;;;;;;;;;;;;;13.17;100.00;99847.28;5001252;28;19917;-88
2022/10/22 06:56:26;;;;;;;;;;;;;;;13.45;100.00;99854.50;4988800;28;19969;-88
2022/10/22 06:58:52;;;;;;;;;;;;;;;13.59;100.00;99839.94;4993182;28;19922;-88
2022/10/22 07:01:20;;;;;;;;;;;;;;;13.81;100.00;99832.25;4992562;28;19975;-87
2022/10/22 07:03:45;;;;;;;;;;;;;;;13.96;100.00;99841.53;5001601;28;20013;-88
2022/10/22 07:06:12;;;;;;;;;;;;;;;14.02;100.00;99827.75;5006017;28;20505;-88
2022/10/22 07:08:38;;;;;;;;;;;;;;;14.02;100.00;99834.13;4993563;28;19917;-88
2022/10/22 07:11:04;;;;;;;;;;;;;;;14.20;100.00;99832.53;4987779;28;19917;-88
2022/10/22 07:13:29;;;;;;;;;;;;;;;14.43;100.00;99835.50;4984102;28;19972;-89
2022/10/22 07:15:55;;;;;;;;;;;;;;;14.69;100.00;99847.03;4999495;28;19917;-89
2022/10/22 07:18:20;;;;;;;;;;;;;;;14.90;100.00;99853.66;4989161;28;19972;-89
2022/10/22 07:20:46;;;;;;;;;;;;;;;15.15;100.00;99852.47;4994573;28;19917;-89
2022/10/22 07:23:12;;;;;;;;;;;;;;;15.39;100.00;99853.28;5007740;28;20350;-88
2022/10/22 07:25:37;;;;;;;;;;;;;;;15.70;100.00;99862.13;4985762;28;19980;-77
2022/10/22 07:28:02;;;;;;;;;;;;;;;15.87;100.00;99851.28;4987609;28;19921;-89
2022/10/22 07:30:28;;;;;;;;;;;;;;;15.83;100.00;99850.69;4993518;28;19925;-88
2022/10/22 07:32:53;;;;;;;;;;;;;;;15.84;100.00;99849.44;4999383;28;20406;-88
2022/10/22 07:35:18;;;;;;;;;;;;;;;15.78;100.00;99843.72;4989209;28;19925;-87
2022/10/22 07:37:44;;;;;;;;;;;;;;;15.72;100.00;99842.84;4984870;28;19925;-88
2022/10/22 07:40:09;;;;;;;;;;;;;;;15.69;100.00;99851.44;5000604;28;19917;-90
2022/10/22 07:42:35;;;;;;;;;;;;;;;15.83;100.00;99859.84;4992133;28;20275;-89
2022/10/22 07:45:00;;;;;;;;;;;;;;;15.95;100.00;99848.88;4975190;28;19918;-78
2022/10/22 07:47:25;;;;;;;;;;;;;;;16.00;100.00;99856.63;5003610;28;19979;-78
2022/10/22 07:49:51;;;;;;;;;;;;;;;16.03;100.00;99845.25;4989419;28;20363;-77
2022/10/22 07:52:16;;;;;;;;;;;;;;;16.01;100.00;99852.59;4986822;28;19924;-77
2022/10/22 07:54:41;;;;;;;;;;;;;;;16.02;100.00;99851.31;4983177;28;20040;-77
2022/10/22 07:57:07;;;;;;;;;;;;;;;16.05;100.00;99864.38;5002285;28;19921;-77
2022/10/22 07:59:32;;;;;;;;;;;;;;;16.09;100.00;99870.53;5002733;28;19918;-77
2022/10/22 08:01:57;;;;;;;;;;;;;;;16.27;100.00;99875.97;4992124;28;19921;-77
2022/10/22 08:04:23;;;;;;;;;;;;;;;16.49;100.00;99870.03;4959550;28;20335;-89
2022/10/22 08:06:48;;;;;;;;;;;;;;;16.69;100.00;99876.53;4977784;28;19921;-88
2022/10/22 08:09:13;;;;;;;;;;;;;;;16.87;100.00;99867.16;4990592;28;19924;-89
2022/10/22 08:11:39;;;;;;;;;;;;;;;17.17;100.00;99871.47;4975051;28;19920;-90
2022/10/22 08:14:05;;;;;;;;;;;;;;;17.37;100.00;99873.56;4993100;28;20294;-88
2022/10/22 08:16:30;;;;;;;;;;;;;;;17.48;100.00;99859.69;5011097;28;19979;-89
2022/10/22 08:18:55;;;;;;;;;;;;;;;17.74;100.00;99871.03;5007900;28;20367;-89
2022/10/22 08:21:20;;;;;;;;;;;;;;;17.88;100.00;99875.03;5002536;28;19922;-89
2022/10/22 08:23:46;;;;;;;;;;;;;;;17.92;100.00;99875.59;4985535;28;20016;-78
2022/10/22 08:26:11;;;;;;;;;;;;;;;18.08;100.00;99878.59;4996906;28;19914;-89
2022/10/22 08:28:36;;;;;;;;;;;;;;;18.24;100.00;99882.84;4997944;28;19940;-89
2022/10/22 08:31:03;;;;;;;;;;;;;;;18.30;99.90;99872.47;5000210;28;19917;-88
2022/10/22 08:33:28;;;;;;;;;;;;;;;18.36;100.00;99878.16;4987351;28;19920;-89
2022/10/22 08:35:53;;;;;;;;;;;;;;;18.40;99.50;99870.28;4993586;28;19921;-89
2022/10/22 08:38:19;;;;;;;;;;;;;;;18.45;100.00;99878.75;4993305;28;19924;-89
2022/10/22 08:40:46;;;;;;;;;;;;;;;18.52;98.75;99881.16;4990571;28;19918;-89
2022/10/22 08:43:21;;;;;;;;;;;;;;;18.51;98.15;99882.41;4983188;28;19917;-78
2022/10/22 08:45:49;;;;;;;;;;;;;;;18.53;99.63;99885.50;5000368;28;19933;-78
2022/10/22 08:48:23;;;;;;;;;;;;;;;18.52;98.74;99889.56;4991513;28;19918;-78
2022/10/22 08:50:50;;;;;;;;;;;;;;;18.49;97.10;99884.91;4976014;28;19918;-77
2022/10/22 08:53:20;;;;;;;;;;;;;;;18.53;97.25;99888.31;4998332;28;19918;-78
2022/10/22 08:55:46;;;;;;;;;;;;;;;18.55;98.11;99894.22;4964731;28;20071;-79
2022/10/22 08:58:19;;;;;;;;;;;;;;;18.61;98.59;99897.84;4998497;28;20016;-78
2022/10/22 09:00:59;;;;;;;;;;;;;;;18.71;98.25;99909.69;4980016;28;19929;-79
2022/10/22 09:03:25;;;;;;;;;;;;;;;18.67;97.15;99900.72;5001267;28;20016;-76
2022/10/22 09:06:10;;;;;;;;;;;;;;;18.83;95.69;99897.31;4997826;28;19924;-77
2022/10/22 09:08:35;;;;;;;;;;;;;;;18.77;95.98;99882.41;5002362;28;19917;-77
2022/10/22 09:11:03;;;;;;;;;;;;;;;18.81;96.03;99907.47;4987839;28;20032;-78
2022/10/22 09:13:28;;;;;;;;;;;;;;;18.89;95.73;99906.53;4982633;28;19917;-77
2022/10/22 09:15:55;;;;;;;;;;;;;;;18.93;94.43;99906.31;5004222;28;21304;-78
2022/10/22 09:18:50;;;;;;;;;;;;;;;18.87;94.51;99913.94;4991553;28;20370;-77
2022/10/22 09:21:15;;;;;;;;;;;;;;;18.86;94.33;99907.53;4929423;28;20431;-91
2022/10/22 09:23:43;;;;;;;;;;;;;;;18.90;94.81;99901.69;4997557;28;19983;-90
2022/10/22 09:26:13;;;;;;;;;;;;;;;19.08;93.51;99906.97;5000681;28;19918;-89
2022/10/22 09:28:39;;;;;;;;;;;;;;;19.47;91.25;99916.50;4984796;28;19925;-88
2022/10/22 09:31:11;;;;;;;;;;;;;;;19.60;89.95;99918.09;4989015;28;20469;-89
2022/10/22 09:33:37;;;;;;;;;;;;;;;19.75;90.56;99919.47;4982878;28;20387;-89
2022/10/22 09:36:04;;;;;;;;;;;;;;;19.75;88.65;99927.16;4973246;28;20007;-88
2022/10/22 09:38:31;;;;;;;;;;;;;;;19.69;89.91;99927.13;4961130;28;19959;-91
2022/10/22 09:40:58;;;;;;;;;;;;;;;19.60;88.62;99935.78;4981073;28;19917;-90
2022/10/22 09:43:24;;;;;;;;;;;;;;;19.55;89.53;99923.19;4968319;28;19926;-91
2022/10/22 09:45:59;;;;;;;;;;;;;;;19.45;89.91;99930.28;4988390;28;20398;-91
2022/10/22 09:48:29;;;;;;;;;;;;;;;19.41;90.51;99938.16;4979705;28;19918;-90
2022/10/22 09:51:05;;;;;;;;;;;;;;;19.39;90.37;99937.13;4983195;28;19921;-92
2022/10/22 09:53:34;;;;;;;;;;;;;;;19.46;90.16;99942.31;4980644;28;19925;-90
2022/10/22 09:56:00;;;;;;;;;;;;;;;19.46;91.41;99936.69;4965962;28;19926;-90
2022/10/22 09:58:26;;;;;;;;;;;;;;;19.51;89.48;99939.53;4990766;28;19932;-77
2022/10/22 10:00:56;;;;;;;;;;;;;;;19.62;89.23;99933.22;4997969;28;20299;-89
2022/10/22 10:03:22;;;;;;;;;;;;;;;19.60;90.98;99929.38;5005779;28;19924;-88
2022/10/22 10:05:48;;;;;;;;;;;;;;;19.76;90.28;99942.78;5006631;28;19929;-89
2022/10/22 10:08:14;;;;;;;;;;;;;;;19.79;89.93;99944.56;4990498;28;19922;-90
2022/10/22 10:10:47;;;;;;;;;;;;;;;19.65;89.43;99937.84;4989867;28;19921;-87
2022/10/22 10:13:24;;;;;;;;;;;;;;;19.67;90.86;99948.59;4995700;28;20686;-88
2022/10/22 10:16:03;;;;;;;;;;;;;;;19.63;91.17;99946.00;4994140;28;20363;-89
2022/10/22 10:18:32;;;;;;;;;;;;;;;19.64;91.45;99958.03;5000614;28;19917;-77
2022/10/22 10:20:57;;;;;;;;;;;;;;;19.71;90.15;99943.50;5009819;28;19913;-77
2022/10/22 10:23:43;;;;;;;;;;;;;;;19.53;91.25;99956.69;5009099;28;19922;-77
2022/10/22 10:26:13;;;;;;;;;;;;;;;19.49;91.50;99975.09;5003495;28;20006;-77
2022/10/22 10:29:01;;;;;;;;;;;;;;;19.49;92.33;99978.63;5009761;28;19924;-77
2022/10/22 10:31:35;;;;;;;;;;;;;;;19.50;92.23;99987.84;5009529;28;19922;-76
2022/10/22 10:34:19;;;;;;;;;;;;;;;19.41;93.14;99980.34;4996357;28;19918;-77
2022/10/22 10:37:04;;;;;;;;;;;;;;;19.22;94.33;99981.97;4996732;28;19917;-77
2022/10/22 10:39:39;;;;;;;;;;;;;;;18.95;96.73;99988.09;4995576;28;19925;-77
2022/10/22 10:42:20;;;;;;;;;;;;;;;18.51;98.70;99993.97;5013849;28;20393;-77
2022/10/22 10:44:52;;;;;;;;;;;;;;;18.05;100.00;100005.13;4993180;28;19925;-77
2022/10/22 10:47:17;;;;;;;;;;;;;;;17.82;100.00;100003.25;4983854;28;19918;-78
2022/10/22 10:49:43;;;;;;;;;;;;;;;17.79;100.00;99995.81;4992348;28;19917;-77
2022/10/22 10:52:14;;;;;;;;;;;;;;;17.87;100.00;99983.72;5013792;28;19925;-77
2022/10/22 10:55:03;;;;;;;;;;;;;;;17.82;100.00;100000.44;5008191;28;20440;-90
2022/10/22 10:57:28;;;;;;;;;;;;;;;17.74;100.00;99999.31;4997374;28;19925;-77
2022/10/22 10:59:57;;;;;;;;;;;;;;;17.60;100.00;100007.25;5013887;28;19918;-77
2022/10/22 11:02:22;;;;;;;;;;;;;;;17.45;100.00;100006.47;5009769;28;20025;-77
2022/10/22 11:04:47;;;;;;;;;;;;;;;17.28;100.00;100016.63;5010179;28;20372;-77
2022/10/22 11:07:14;;;;;;;;;;;;;;;17.22;100.00;100010.16;5012287;28;19913;-77
2022/10/22 11:09:58;;;;;;;;;;;;;;;17.14;100.00;100014.63;4982473;28;19918;-77
2022/10/22 11:12:24;;;;;;;;;;;;;;;17.12;100.00;100006.69;5014094;28;20256;-77
2022/10/22 11:14:55;;;;;;;;;;;;;;;17.21;100.00;100003.78;5002334;28;19925;-77
2022/10/22 11:17:21;;;;;;;;;;;;;;;17.06;100.00;100002.25;5000274;28;19921;-77
2022/10/22 11:19:51;;;;;;;;;;;;;;;17.00;100.00;100009.75;5002118;28;20021;-77
2022/10/22 11:22:19;;;;;;;;;;;;;;;16.71;100.00;100005.66;4993816;28;19917;-77
2022/10/22 11:24:47;;;;;;;;;;;;;;;16.63;100.00;100012.88;5000430;28;19921;-77
2022/10/22 11:27:39;;;;;;;;;;;;;;;16.61;100.00;100009.81;4982946;28;19936;-77
2022/10/22 11:30:10;;;;;;;;;;;;;;;16.33;100.00;100009.19;4985263;28;19932;-77
2022/10/22 11:32:36;;;;;;;;;;;;;;;16.23;100.00;100018.13;4974833;28;20024;-76
2022/10/22 11:35:02;;;;;;;;;;;;;;;16.16;100.00;100018.47;5003054;28;20028;-76
2022/10/22 11:37:31;;;;;;;;;;;;;;;15.97;100.00;100026.22;4990729;28;20001;-76
2022/10/22 11:40:01;;;;;;;;;;;;;;;15.81;100.00;100035.75;4991465;28;19918;-77
2022/10/22 11:42:37;;;;;;;;;;;;;;;15.69;100.00;100047.16;5000346;28;19921;-76
2022/10/22 11:45:14;;;;;;;;;;;;;;;15.50;100.00;100043.63;4982502;28;19918;-76
2022/10/22 11:47:56;;;;;;;;;;;;;;;15.53;100.00;100030.75;4993823;28;20383;-77
2022/10/22 11:50:24;;;;;;;;;;;;;;;15.45;100.00;100035.09;5011279;28;19932;-77
2022/10/22 11:52:54;;;;;;;;;;;;;;;15.44;100.00;100039.13;4995102;28;19917;-90
2022/10/22 11:55:32;;;;;;;;;;;;;;;15.34;100.00;100041.94;4995287;28;19964;-89
2022/10/22 11:58:00;;;;;;;;;;;;;;;15.35;100.00;100045.50;5011287;28;19923;-89
2022/10/22 12:00:32;;;;;;;;;;;;;;;15.38;100.00;100038.97;4991151;28;19918;-90
2022/10/22 12:03:17;;;;;;;;;;;;;;;15.37;100.00;100041.00;4992482;28;19971;-90
2022/10/22 12:05:44;;;;;;;;;;;;;;;15.37;100.00;100045.81;4994773;28;20291;-89
2022/10/22 12:08:09;;;;;;;;;;;;;;;15.32;100.00;100032.50;4992183;28;19914;-89
2022/10/22 12:10:36;;;;;;;;;;;;;;;15.29;100.00;100034.19;4996986;28;19925;-89
2022/10/22 12:13:10;;;;;;;;;;;;;;;15.26;100.00;100029.53;5011055;28;19921;-77
2022/10/22 12:15:35;;;;;;;;;;;;;;;15.17;100.00;100040.72;5003447;28;19917;-77
2022/10/22 12:18:01;;;;;;;;;;;;;;;15.16;100.00;100035.63;4998379;28;19980;-77
2022/10/22 12:20:27;;;;;;;;;;;;;;;15.11;100.00;100033.47;5001104;28;19917;-77
2022/10/22 12:22:52;;;;;;;;;;;;;;;15.04;100.00;100015.00;5010574;28;19944;-77
2022/10/22 12:25:21;;;;;;;;;;;;;;;15.14;100.00;100021.34;5010359;28;19945;-77
2022/10/22 12:27:50;;;;;;;;;;;;;;;15.15;100.00;100020.88;4992379;28;20386;-77
2022/10/22 12:30:15;;;;;;;;;;;;;;;15.16;100.00;100025.22;4980884;28;19917;-85
2022/10/22 12:32:41;;;;;;;;;;;;;;;15.26;100.00;100023.16;4999126;28;20000;-77
2022/10/22 12:35:16;;;;;;;;;;;;;;;15.31;100.00;100019.75;4986337;28;20433;-77
2022/10/22 12:37:42;;;;;;;;;;;;;;;15.32;100.00;100032.50;5003438;28;19926;-77
2022/10/22 12:40:20;;;;;;;;;;;;;;;15.36;100.00;100033.09;4999194;28;20427;-77
2022/10/22 12:42:46;;;;;;;;;;;;;;;15.34;100.00;100030.75;4999094;28;20020;-77
2022/10/22 12:45:11;;;;;;;;;;;;;;;15.29;100.00;100042.56;4998263;28;20032;-77
2022/10/22 12:47:37;;;;;;;;;;;;;;;15.21;100.00;100037.78;4997754;28;20391;-77
2022/10/22 12:50:02;;;;;;;;;;;;;;;15.09;100.00;100031.13;4996901;28;19922;-77
2022/10/22 12:52:28;;;;;;;;;;;;;;;15.01;100.00;100040.28;4982030;28;19972;-90
2022/10/22 12:54:53;;;;;;;;;;;;;;;14.93;100.00;100049.00;4996528;28;20287;-89
2022/10/22 12:57:19;;;;;;;;;;;;;;;14.90;100.00;100057.53;4989423;28;19932;-89
2022/10/22 12:59:49;;;;;;;;;;;;;;;14.83;100.00;100058.63;4990320;28;19925;-89
2022/10/22 13:02:17;;;;;;;;;;;;;;;14.83;100.00;100055.84;4981894;28;19966;-89
2022/10/22 13:04:53;;;;;;;;;;;;;;;14.92;100.00;100055.81;4978703;28;19933;-89
2022/10/22 13:07:19;;;;;;;;;;;;;;;14.96;100.00;100054.91;4989665;28;20000;-89
2022/10/22 13:09:44;;;;;;;;;;;;;;;14.87;100.00;100064.81;4990058;28;20012;-90
2022/10/22 13:12:15;;;;;;;;;;;;;;;14.84;100.00;100054.56;4981883;28;19929;-77
2022/10/22 13:14:40;;;;;;;;;;;;;;;14.78;100.00;100045.28;4983960;28;20060;-77
2022/10/22 13:17:16;;;;;;;;;;;;;;;14.81;100.00;100054.72;4992236;28;20435;-77
2022/10/22 13:19:45;;;;;;;;;;;;;;;14.82;100.00;100048.69;5005697;28;19922;-77
2022/10/22 13:22:22;;;;;;;;;;;;;;;14.85;100.00;100050.53;5000612;28;20011;-77
2022/10/22 13:24:48;;;;;;;;;;;;;;;14.84;100.00;100048.97;5010785;28;19921;-77
2022/10/22 13:27:14;;;;;;;;;;;;;;;14.73;100.00;100059.84;4993473;28;20012;-89
2022/10/22 13:29:39;;;;;;;;;;;;;;;14.71;100.00;100061.56;5009910;28;20008;-77
2022/10/22 13:32:16;;;;;;;;;;;;;;;14.62;100.00;100067.91;4993441;28;19921;-89
2022/10/22 13:34:42;;;;;;;;;;;;;;;14.64;100.00;100071.00;4984595;28;19922;-88
2022/10/22 13:37:08;;;;;;;;;;;;;;;14.61;100.00;100069.16;5009259;28;19925;-89
2022/10/22 13:39:34;;;;;;;;;;;;;;;14.62;100.00;100061.56;4982335;28;20281;-88
2022/10/22 13:41:59;;;;;;;;;;;;;;;14.61;100.00;100066.34;5009691;28;19917;-90
2022/10/22 13:44:24;;;;;;;;;;;;;;;14.68;100.00;100068.84;4976940;28;19928;-88